Chie Maru No.10 — JD2376 — position and weather

sailwx.info

Track history (hours):
 
Tides and Currents Weather Stations Pressure Air Temp Water Temp Dewpoint Dewpoint Depression Visibility Wind Speed Wind Dir Waves Ship Positions

Chie Maru No.10

Last reported at 2017-Nov-12 22:19 UTC. Time now 2017-Nov-19 01:16 UTC.
Position N 35°29' E 139°56'.

Length 72 m; draft 3.8 m.

Type: Ship. MMSI: 431000147.

Date/timePositionNaut miles runAvg speedWind from/ knotsBaromVisibWave heightAir tempDewpointWater temp
2017-Nov-12 22:19N 35°29' E 139°56'1 0.6
2017-Nov-12 20:06N 35°29' E 139°54'0 0.0
2017-Nov-12 19:51N 35°29' E 139°54'0 0.1
2017-Nov-12 19:30N 35°29' E 139°54'4 8.1
2017-Nov-12 19:00N 35°27' E 139°50'611.8
2017-Nov-12 18:30N 35°22' E 139°45'510.5
2017-Nov-12 18:00N 35°17' E 139°45'611.2
2017-Nov-12 17:30N 35°12' E 139°47'612.4
2017-Nov-12 17:00N 35°05' E 139°45'612.6
2017-Nov-12 16:30N 34°59' E 139°43'612.0
2017-Nov-12 16:00N 34°54' E 139°47'  
2017-Nov-10 08:05N 34°52' E 139°48'312.2
2017-Nov-10 07:50N 34°54' E 139°45'413.2
2017-Nov-10 07:30N 34°58' E 139°43'612.8
2017-Nov-10 07:00N 35°05' E 139°44'612.5
2017-Nov-10 06:30N 35°11' E 139°46'611.8
2017-Nov-10 06:00N 35°17' E 139°45'611.8
2017-Nov-10 05:31N 35°22' E 139°42'611.6
2017-Nov-10 05:00N 35°27' E 139°46'612.0
2017-Nov-10 04:30N 35°30' E 139°53'8 1.3
2017-Nov-09 22:05N 35°31' E 140°03'0 0.1
2017-Nov-09 21:58N 35°31' E 140°03'3 3.6
2017-Nov-09 21:13N 35°31' E 139°59'1 2.1
2017-Nov-09 20:55N 35°31' E 139°59'0 0.0
2017-Nov-09 20:14N 35°31' E 139°59'0 0.0
2017-Nov-09 19:56N 35°31' E 139°59'0 0.0
2017-Nov-09 13:30N 35°31' E 139°58'5 9.9
2017-Nov-09 13:01N 35°29' E 139°53'611.7
2017-Nov-09 12:31N 35°25' E 139°48'611.5
2017-Nov-09 12:01N 35°20' E 139°44'510.8
2017-Nov-09 11:31N 35°15' E 139°47'4 0.1
2017-Nov-07 07:32N 35°11' E 139°46'011.5
2017-Nov-07 07:30N 35°11' E 139°46'611.1
2017-Nov-07 07:00N 35°17' E 139°45'611.6
2017-Nov-07 06:31N 35°22' E 139°42'611.3
2017-Nov-07 06:01N 35°27' E 139°45'4 8.2
2017-Nov-07 05:31N 35°31' E 139°46'0 0.3
2017-Nov-07 04:38N 35°31' E 139°46'0 0.0
2017-Nov-07 04:18N 35°31' E 139°46'0 0.0
2017-Nov-07 04:00N 35°31' E 139°46'0 0.0
2017-Nov-07 03:29N 35°31' E 139°46'0 0.0
2017-Nov-07 02:59N 35°31' E 139°46'0 0.0
2017-Nov-07 02:29N 35°31' E 139°46'0 0.0
2017-Nov-07 01:59N 35°31' E 139°46'0 0.0
2017-Nov-07 01:30N 35°31' E 139°46'0 0.0
2017-Nov-07 01:00N 35°31' E 139°46'0 0.0
2017-Nov-07 00:27N 35°31' E 139°46'0 0.0
2017-Nov-06 23:59N 35°31' E 139°46'0 0.0
2017-Nov-06 23:30N 35°31' E 139°46'0 0.1
2017-Nov-06 23:01N 35°31' E 139°46'3 5.1
2017-Nov-06 22:30N 35°29' E 139°48'1 0.5
2017-Nov-06 20:49N 35°29' E 139°48'0 0.0
2017-Nov-06 20:13N 35°29' E 139°48'  
Track history (hours):
 
Tides and Currents Weather Stations Pressure Air Temp Water Temp Dewpoint Dewpoint Depression Visibility Wind Speed Wind Dir Waves Ship Positions

Chie Maru No.10

Last reported at 2017-Nov-12 22:19 UTC. Time now 2017-Nov-19 01:16 UTC.
Position N 35°29' E 139°56'.

Length 72 m; draft 3.8 m.

Type: Ship. MMSI: 431000147.

Date/timePositionNaut miles runAvg speedWind from/ knotsBaromVisibWave heightAir tempDewpointWater temp
2017-Nov-12 22:19N 35°29' E 139°56'1 0.6
2017-Nov-12 20:06N 35°29' E 139°54'0 0.0
2017-Nov-12 19:51N 35°29' E 139°54'0 0.1
2017-Nov-12 19:30N 35°29' E 139°54'4 8.1
2017-Nov-12 19:00N 35°27' E 139°50'611.8
2017-Nov-12 18:30N 35°22' E 139°45'510.5
2017-Nov-12 18:00N 35°17' E 139°45'611.2
2017-Nov-12 17:30N 35°12' E 139°47'612.4
2017-Nov-12 17:00N 35°05' E 139°45'612.6
2017-Nov-12 16:30N 34°59' E 139°43'612.0
2017-Nov-12 16:00N 34°54' E 139°47'  
2017-Nov-10 08:05N 34°52' E 139°48'312.2
2017-Nov-10 07:50N 34°54' E 139°45'413.2
2017-Nov-10 07:30N 34°58' E 139°43'612.8
2017-Nov-10 07:00N 35°05' E 139°44'612.5
2017-Nov-10 06:30N 35°11' E 139°46'611.8
2017-Nov-10 06:00N 35°17' E 139°45'611.8
2017-Nov-10 05:31N 35°22' E 139°42'611.6
2017-Nov-10 05:00N 35°27' E 139°46'612.0
2017-Nov-10 04:30N 35°30' E 139°53'8 1.3
2017-Nov-09 22:05N 35°31' E 140°03'0 0.1
2017-Nov-09 21:58N 35°31' E 140°03'3 3.6
2017-Nov-09 21:13N 35°31' E 139°59'1 2.1
2017-Nov-09 20:55N 35°31' E 139°59'0 0.0
2017-Nov-09 20:14N 35°31' E 139°59'0 0.0
2017-Nov-09 19:56N 35°31' E 139°59'0 0.0
2017-Nov-09 13:30N 35°31' E 139°58'5 9.9
2017-Nov-09 13:01N 35°29' E 139°53'611.7
2017-Nov-09 12:31N 35°25' E 139°48'611.5
2017-Nov-09 12:01N 35°20' E 139°44'510.8
2017-Nov-09 11:31N 35°15' E 139°47'4 0.1
2017-Nov-07 07:32N 35°11' E 139°46'011.5
2017-Nov-07 07:30N 35°11' E 139°46'611.1
2017-Nov-07 07:00N 35°17' E 139°45'611.6
2017-Nov-07 06:31N 35°22' E 139°42'611.3
2017-Nov-07 06:01N 35°27' E 139°45'4 8.2
2017-Nov-07 05:31N 35°31' E 139°46'0 0.3
2017-Nov-07 04:38N 35°31' E 139°46'0 0.0
2017-Nov-07 04:18N 35°31' E 139°46'0 0.0
2017-Nov-07 04:00N 35°31' E 139°46'0 0.0
2017-Nov-07 03:29N 35°31' E 139°46'0 0.0
2017-Nov-07 02:59N 35°31' E 139°46'0 0.0
2017-Nov-07 02:29N 35°31' E 139°46'0 0.0
2017-Nov-07 01:59N 35°31' E 139°46'0 0.0
2017-Nov-07 01:30N 35°31' E 139°46'0 0.0
2017-Nov-07 01:00N 35°31' E 139°46'0 0.0
2017-Nov-07 00:27N 35°31' E 139°46'0 0.0
2017-Nov-06 23:59N 35°31' E 139°46'0 0.0
2017-Nov-06 23:30N 35°31' E 139°46'0 0.1
2017-Nov-06 23:01N 35°31' E 139°46'3 5.1
2017-Nov-06 22:30N 35°29' E 139°48'1 0.5
2017-Nov-06 20:49N 35°29' E 139°48'0 0.0
2017-Nov-06 20:13N 35°29' E 139°48'  

Dump ship's entire track history